sensor_id;sensor_type;location;lat;lon;timestamp;P1;durP1;ratioP1;P2;durP2;ratioP2
56752;SDS011;42627;42.646;23.642;2023-03-25T00:02:01;11.07;;;4.70;;
56752;SDS011;42627;42.646;23.642;2023-03-25T00:04:04;8.60;;;4.45;;
56752;SDS011;42627;42.646;23.642;2023-03-25T00:06:05;10.05;;;4.32;;
56752;SDS011;42627;42.646;23.642;2023-03-25T00:08:06;10.93;;;4.43;;
56752;SDS011;42627;42.646;23.642;2023-03-25T00:10:07;11.80;;;5.00;;
56752;SDS011;42627;42.646;23.642;2023-03-25T00:12:23;11.65;;;4.80;;
56752;SDS011;42627;42.646;23.642;2023-03-25T00:16:56;7.07;;;3.53;;
56752;SDS011;42627;42.646;23.642;2023-03-25T00:18:57;7.80;;;3.95;;
56752;SDS011;42627;42.646;23.642;2023-03-25T00:21:00;12.38;;;4.55;;
56752;SDS011;42627;42.646;23.642;2023-03-25T00:23:02;8.02;;;4.18;;
56752;SDS011;42627;42.646;23.642;2023-03-25T00:25:03;7.63;;;3.95;;
56752;SDS011;42627;42.646;23.642;2023-03-25T00:27:04;8.52;;;4.10;;
56752;SDS011;42627;42.646;23.642;2023-03-25T00:29:04;8.60;;;4.05;;
56752;SDS011;42627;42.646;23.642;2023-03-25T00:31:07;10.27;;;4.75;;
56752;SDS011;42627;42.646;23.642;2023-03-25T00:33:33;11.15;;;4.90;;
56752;SDS011;42627;42.646;23.642;2023-03-25T00:35:35;10.07;;;4.68;;
56752;SDS011;42627;42.646;23.642;2023-03-25T00:37:36;9.95;;;4.30;;
56752;SDS011;42627;42.646;23.642;2023-03-25T00:39:37;13.18;;;4.72;;
56752;SDS011;42627;42.646;23.642;2023-03-25T00:41:37;9.75;;;4.60;;
56752;SDS011;42627;42.646;23.642;2023-03-25T00:43:40;10.35;;;5.28;;
56752;SDS011;42627;42.646;23.642;2023-03-25T00:45:41;11.18;;;5.60;;
56752;SDS011;42627;42.646;23.642;2023-03-25T00:52:29;12.10;;;4.35;;
56752;SDS011;42627;42.646;23.642;2023-03-25T00:54:30;11.30;;;4.63;;
56752;SDS011;42627;42.646;23.642;2023-03-25T00:56:33;7.68;;;4.28;;
56752;SDS011;42627;42.646;23.642;2023-03-25T00:58:33;7.55;;;3.70;;
56752;SDS011;42627;42.646;23.642;2023-03-25T01:00:34;6.07;;;3.72;;
56752;SDS011;42627;42.646;23.642;2023-03-25T01:02:44;10.10;;;4.18;;
56752;SDS011;42627;42.646;23.642;2023-03-25T01:04:44;7.50;;;3.85;;
56752;SDS011;42627;42.646;23.642;2023-03-25T01:06:45;8.48;;;4.40;;
56752;SDS011;42627;42.646;23.642;2023-03-25T01:08:50;9.38;;;4.70;;
56752;SDS011;42627;42.646;23.642;2023-03-25T01:10:52;16.90;;;6.15;;
56752;SDS011;42627;42.646;23.642;2023-03-25T01:12:53;18.92;;;6.40;;
56752;SDS011;42627;42.646;23.642;2023-03-25T01:14:53;9.43;;;3.97;;
56752;SDS011;42627;42.646;23.642;2023-03-25T01:19:04;6.85;;;3.72;;
56752;SDS011;42627;42.646;23.642;2023-03-25T01:21:06;9.43;;;4.07;;
56752;SDS011;42627;42.646;23.642;2023-03-25T01:23:07;11.18;;;4.28;;
56752;SDS011;42627;42.646;23.642;2023-03-25T01:25:10;17.60;;;4.97;;
56752;SDS011;42627;42.646;23.642;2023-03-25T01:27:11;8.82;;;3.47;;
56752;SDS011;42627;42.646;23.642;2023-03-25T01:31:45;7.40;;;3.70;;
56752;SDS011;42627;42.646;23.642;2023-03-25T01:33:46;11.10;;;3.65;;
56752;SDS011;42627;42.646;23.642;2023-03-25T01:35:47;9.82;;;3.67;;
56752;SDS011;42627;42.646;23.642;2023-03-25T01:37:48;11.20;;;4.68;;
56752;SDS011;42627;42.646;23.642;2023-03-25T01:39:53;11.52;;;3.95;;
56752;SDS011;42627;42.646;23.642;2023-03-25T01:41:54;7.00;;;3.53;;
56752;SDS011;42627;42.646;23.642;2023-03-25T01:48:30;8.27;;;4.43;;
56752;SDS011;42627;42.646;23.642;2023-03-25T01:50:35;11.35;;;5.18;;
56752;SDS011;42627;42.646;23.642;2023-03-25T01:52:40;13.90;;;4.38;;
56752;SDS011;42627;42.646;23.642;2023-03-25T01:54:44;9.85;;;3.75;;
56752;SDS011;42627;42.646;23.642;2023-03-25T01:56:51;13.48;;;5.63;;
56752;SDS011;42627;42.646;23.642;2023-03-25T01:58:55;15.32;;;5.93;;
56752;SDS011;42627;42.646;23.642;2023-03-25T02:01:05;12.13;;;5.28;;
56752;SDS011;42627;42.646;23.642;2023-03-25T02:03:06;8.43;;;4.22;;
56752;SDS011;42627;42.646;23.642;2023-03-25T02:07:17;9.77;;;4.68;;
56752;SDS011;42627;42.646;23.642;2023-03-25T02:09:19;12.73;;;4.35;;
56752;SDS011;42627;42.646;23.642;2023-03-25T02:11:23;10.13;;;4.47;;
56752;SDS011;42627;42.646;23.642;2023-03-25T02:13:28;12.25;;;4.93;;
56752;SDS011;42627;42.646;23.642;2023-03-25T02:15:30;9.68;;;3.60;;
56752;SDS011;42627;42.646;23.642;2023-03-25T02:38:13;10.43;;;4.50;;
56752;SDS011;42627;42.646;23.642;2023-03-25T02:41:13;8.55;;;3.80;;
56752;SDS011;42627;42.646;23.642;2023-03-25T02:43:04;7.50;;;3.65;;
56752;SDS011;42627;42.646;23.642;2023-03-25T02:47:40;5.82;;;2.83;;
56752;SDS011;42627;42.646;23.642;2023-03-25T02:49:51;13.95;;;5.63;;
56752;SDS011;42627;42.646;23.642;2023-03-25T02:54:15;8.85;;;4.05;;
56752;SDS011;42627;42.646;23.642;2023-03-25T02:56:18;7.68;;;3.25;;
56752;SDS011;42627;42.646;23.642;2023-03-25T02:58:21;5.75;;;2.90;;
56752;SDS011;42627;42.646;23.642;2023-03-25T03:00:25;5.00;;;2.85;;
56752;SDS011;42627;42.646;23.642;2023-03-25T03:02:28;6.13;;;2.95;;
56752;SDS011;42627;42.646;23.642;2023-03-25T03:07:04;5.45;;;2.60;;
56752;SDS011;42627;42.646;23.642;2023-03-25T03:11:23;7.18;;;3.50;;
56752;SDS011;42627;42.646;23.642;2023-03-25T03:15:52;7.10;;;2.83;;
56752;SDS011;42627;42.646;23.642;2023-03-25T03:20:52;7.22;;;2.63;;
56752;SDS011;42627;42.646;23.642;2023-03-25T03:25:18;10.10;;;5.28;;
56752;SDS011;42627;42.646;23.642;2023-03-25T03:27:50;8.48;;;4.32;;
56752;SDS011;42627;42.646;23.642;2023-03-25T03:37:42;5.97;;;3.38;;
56752;SDS011;42627;42.646;23.642;2023-03-25T03:39:48;7.70;;;3.72;;
56752;SDS011;42627;42.646;23.642;2023-03-25T03:41:58;6.45;;;3.28;;
56752;SDS011;42627;42.646;23.642;2023-03-25T03:44:07;6.38;;;3.20;;
56752;SDS011;42627;42.646;23.642;2023-03-25T03:46:21;7.10;;;3.83;;
56752;SDS011;42627;42.646;23.642;2023-03-25T03:48:35;6.25;;;2.88;;
56752;SDS011;42627;42.646;23.642;2023-03-25T04:08:43;9.40;;;5.15;;
56752;SDS011;42627;42.646;23.642;2023-03-25T04:13:59;10.05;;;6.22;;
56752;SDS011;42627;42.646;23.642;2023-03-25T04:16:02;8.57;;;5.00;;
56752;SDS011;42627;42.646;23.642;2023-03-25T04:18:03;8.23;;;3.72;;
56752;SDS011;42627;42.646;23.642;2023-03-25T04:20:07;16.27;;;4.63;;
56752;SDS011;42627;42.646;23.642;2023-03-25T04:22:13;9.00;;;3.28;;
56752;SDS011;42627;42.646;23.642;2023-03-25T04:32:12;5.82;;;3.78;;
56752;SDS011;42627;42.646;23.642;2023-03-25T04:34:13;8.50;;;3.53;;
56752;SDS011;42627;42.646;23.642;2023-03-25T04:42:45;9.63;;;4.70;;
56752;SDS011;42627;42.646;23.642;2023-03-25T04:49:08;19.83;;;12.40;;
56752;SDS011;42627;42.646;23.642;2023-03-25T04:51:18;27.15;;;17.77;;
56752;SDS011;42627;42.646;23.642;2023-03-25T04:53:19;10.70;;;7.32;;
56752;SDS011;42627;42.646;23.642;2023-03-25T04:55:20;6.85;;;4.43;;
56752;SDS011;42627;42.646;23.642;2023-03-25T04:57:21;9.50;;;3.80;;
56752;SDS011;42627;42.646;23.642;2023-03-25T04:59:22;5.75;;;2.75;;
56752;SDS011;42627;42.646;23.642;2023-03-25T05:01:24;8.02;;;2.92;;
56752;SDS011;42627;42.646;23.642;2023-03-25T05:03:29;8.02;;;3.42;;
56752;SDS011;42627;42.646;23.642;2023-03-25T05:05:30;7.07;;;3.67;;
56752;SDS011;42627;42.646;23.642;2023-03-25T05:07:30;6.88;;;4.30;;
56752;SDS011;42627;42.646;23.642;2023-03-25T05:09:37;8.40;;;3.45;;
56752;SDS011;42627;42.646;23.642;2023-03-25T05:14:09;4.95;;;2.60;;
56752;SDS011;42627;42.646;23.642;2023-03-25T05:16:11;4.18;;;2.22;;
56752;SDS011;42627;42.646;23.642;2023-03-25T05:18:13;7.45;;;2.72;;
56752;SDS011;42627;42.646;23.642;2023-03-25T05:20:14;6.95;;;3.10;;
56752;SDS011;42627;42.646;23.642;2023-03-25T05:22:15;5.38;;;2.58;;
56752;SDS011;42627;42.646;23.642;2023-03-25T05:24:16;6.53;;;3.53;;
56752;SDS011;42627;42.646;23.642;2023-03-25T05:26:17;5.15;;;2.63;;
56752;SDS011;42627;42.646;23.642;2023-03-25T05:28:19;5.32;;;3.13;;
56752;SDS011;42627;42.646;23.642;2023-03-25T05:30:25;8.35;;;3.10;;
56752;SDS011;42627;42.646;23.642;2023-03-25T05:32:31;6.05;;;3.00;;
56752;SDS011;42627;42.646;23.642;2023-03-25T05:34:34;7.93;;;3.55;;
56752;SDS011;42627;42.646;23.642;2023-03-25T05:36:35;7.82;;;4.05;;
56752;SDS011;42627;42.646;23.642;2023-03-25T05:38:36;6.63;;;3.53;;
56752;SDS011;42627;42.646;23.642;2023-03-25T05:40:52;7.82;;;3.83;;
56752;SDS011;42627;42.646;23.642;2023-03-25T05:45:22;13.93;;;6.97;;
56752;SDS011;42627;42.646;23.642;2023-03-25T05:47:24;18.40;;;8.32;;
56752;SDS011;42627;42.646;23.642;2023-03-25T05:49:24;18.40;;;7.78;;
56752;SDS011;42627;42.646;23.642;2023-03-25T05:51:25;18.45;;;7.95;;
56752;SDS011;42627;42.646;23.642;2023-03-25T05:53:26;20.52;;;10.48;;
56752;SDS011;42627;42.646;23.642;2023-03-25T05:55:30;50.45;;;28.17;;
56752;SDS011;42627;42.646;23.642;2023-03-25T05:57:30;63.90;;;39.40;;
56752;SDS011;42627;42.646;23.642;2023-03-25T05:59:31;23.35;;;13.85;;
56752;SDS011;42627;42.646;23.642;2023-03-25T06:01:32;16.98;;;8.43;;
56752;SDS011;42627;42.646;23.642;2023-03-25T06:03:32;14.18;;;6.45;;
56752;SDS011;42627;42.646;23.642;2023-03-25T06:05:33;10.13;;;5.40;;
56752;SDS011;42627;42.646;23.642;2023-03-25T06:07:34;13.18;;;5.55;;
56752;SDS011;42627;42.646;23.642;2023-03-25T06:09:36;11.98;;;5.80;;
56752;SDS011;42627;42.646;23.642;2023-03-25T06:11:44;10.38;;;5.38;;
56752;SDS011;42627;42.646;23.642;2023-03-25T06:22:41;10.73;;;6.60;;
56752;SDS011;42627;42.646;23.642;2023-03-25T06:24:43;9.05;;;5.28;;
56752;SDS011;42627;42.646;23.642;2023-03-25T06:26:43;10.60;;;5.10;;
56752;SDS011;42627;42.646;23.642;2023-03-25T06:28:49;9.95;;;4.60;;
56752;SDS011;42627;42.646;23.642;2023-03-25T06:30:50;9.52;;;5.00;;
56752;SDS011;42627;42.646;23.642;2023-03-25T06:32:50;8.77;;;4.72;;
56752;SDS011;42627;42.646;23.642;2023-03-25T06:34:54;12.02;;;4.70;;
56752;SDS011;42627;42.646;23.642;2023-03-25T06:36:55;5.55;;;3.70;;
56752;SDS011;42627;42.646;23.642;2023-03-25T06:38:55;11.10;;;4.78;;
56752;SDS011;42627;42.646;23.642;2023-03-25T06:40:57;9.10;;;4.82;;
56752;SDS011;42627;42.646;23.642;2023-03-25T06:42:57;9.18;;;4.53;;
56752;SDS011;42627;42.646;23.642;2023-03-25T06:45:04;9.90;;;4.82;;
56752;SDS011;42627;42.646;23.642;2023-03-25T06:47:05;10.68;;;5.25;;
56752;SDS011;42627;42.646;23.642;2023-03-25T06:49:05;12.05;;;5.60;;
56752;SDS011;42627;42.646;23.642;2023-03-25T06:51:06;9.45;;;5.45;;
56752;SDS011;42627;42.646;23.642;2023-03-25T06:53:07;11.05;;;5.50;;
56752;SDS011;42627;42.646;23.642;2023-03-25T06:55:26;10.98;;;5.85;;
56752;SDS011;42627;42.646;23.642;2023-03-25T06:57:38;9.90;;;5.78;;
56752;SDS011;42627;42.646;23.642;2023-03-25T06:59:48;11.23;;;5.53;;
56752;SDS011;42627;42.646;23.642;2023-03-25T07:14:52;12.75;;;5.93;;
56752;SDS011;42627;42.646;23.642;2023-03-25T07:16:53;11.35;;;5.55;;
56752;SDS011;42627;42.646;23.642;2023-03-25T07:18:55;11.43;;;5.57;;
56752;SDS011;42627;42.646;23.642;2023-03-25T07:20:57;9.77;;;5.03;;
56752;SDS011;42627;42.646;23.642;2023-03-25T07:22:58;12.27;;;6.05;;
56752;SDS011;42627;42.646;23.642;2023-03-25T07:24:59;15.85;;;5.90;;
56752;SDS011;42627;42.646;23.642;2023-03-25T07:27:06;13.45;;;6.90;;
56752;SDS011;42627;42.646;23.642;2023-03-25T07:29:09;13.65;;;6.50;;
56752;SDS011;42627;42.646;23.642;2023-03-25T07:31:11;12.98;;;6.55;;
56752;SDS011;42627;42.646;23.642;2023-03-25T07:33:18;18.13;;;7.10;;
56752;SDS011;42627;42.646;23.642;2023-03-25T07:35:18;13.70;;;7.25;;
56752;SDS011;42627;42.646;23.642;2023-03-25T07:37:19;15.15;;;7.28;;
56752;SDS011;42627;42.646;23.642;2023-03-25T07:39:20;12.18;;;6.50;;
56752;SDS011;42627;42.646;23.642;2023-03-25T07:41:21;13.88;;;7.25;;
56752;SDS011;42627;42.646;23.642;2023-03-25T07:43:22;13.88;;;7.22;;
56752;SDS011;42627;42.646;23.642;2023-03-25T07:45:22;18.05;;;8.73;;
56752;SDS011;42627;42.646;23.642;2023-03-25T07:47:23;16.35;;;7.75;;
56752;SDS011;42627;42.646;23.642;2023-03-25T07:49:23;16.23;;;7.63;;
56752;SDS011;42627;42.646;23.642;2023-03-25T07:51:24;19.20;;;7.38;;
56752;SDS011;42627;42.646;23.642;2023-03-25T07:53:25;15.52;;;8.10;;
56752;SDS011;42627;42.646;23.642;2023-03-25T07:55:26;15.20;;;6.88;;
56752;SDS011;42627;42.646;23.642;2023-03-25T07:57:27;11.38;;;6.43;;
56752;SDS011;42627;42.646;23.642;2023-03-25T07:59:27;15.50;;;6.93;;
56752;SDS011;42627;42.646;23.642;2023-03-25T08:01:28;10.98;;;5.88;;
56752;SDS011;42627;42.646;23.642;2023-03-25T08:03:29;11.50;;;5.75;;
56752;SDS011;42627;42.646;23.642;2023-03-25T08:05:30;10.70;;;4.75;;
56752;SDS011;42627;42.646;23.642;2023-03-25T08:07:32;9.80;;;5.13;;
56752;SDS011;42627;42.646;23.642;2023-03-25T08:09:33;9.55;;;5.20;;
56752;SDS011;42627;42.646;23.642;2023-03-25T08:11:34;11.32;;;4.80;;
56752;SDS011;42627;42.646;23.642;2023-03-25T08:13:35;10.82;;;4.82;;
56752;SDS011;42627;42.646;23.642;2023-03-25T08:15:36;11.15;;;5.13;;
56752;SDS011;42627;42.646;23.642;2023-03-25T08:17:37;12.52;;;5.25;;
56752;SDS011;42627;42.646;23.642;2023-03-25T08:19:39;10.73;;;4.68;;
56752;SDS011;42627;42.646;23.642;2023-03-25T08:21:40;7.65;;;4.22;;
56752;SDS011;42627;42.646;23.642;2023-03-25T08:23:41;10.50;;;5.38;;
56752;SDS011;42627;42.646;23.642;2023-03-25T08:25:43;9.77;;;4.70;;
56752;SDS011;42627;42.646;23.642;2023-03-25T08:27:45;8.40;;;4.10;;
56752;SDS011;42627;42.646;23.642;2023-03-25T08:29:46;8.70;;;4.25;;
56752;SDS011;42627;42.646;23.642;2023-03-25T08:31:53;10.00;;;4.63;;
56752;SDS011;42627;42.646;23.642;2023-03-25T08:33:56;11.50;;;4.97;;
56752;SDS011;42627;42.646;23.642;2023-03-25T08:35:57;10.48;;;4.78;;
56752;SDS011;42627;42.646;23.642;2023-03-25T08:37:57;8.13;;;4.50;;
56752;SDS011;42627;42.646;23.642;2023-03-25T08:40:00;10.63;;;5.03;;
56752;SDS011;42627;42.646;23.642;2023-03-25T08:42:10;8.25;;;4.60;;
56752;SDS011;42627;42.646;23.642;2023-03-25T08:44:12;8.95;;;4.82;;
56752;SDS011;42627;42.646;23.642;2023-03-25T08:46:12;10.50;;;5.38;;
56752;SDS011;42627;42.646;23.642;2023-03-25T08:48:13;8.52;;;4.18;;
56752;SDS011;42627;42.646;23.642;2023-03-25T08:50:14;15.00;;;4.35;;
56752;SDS011;42627;42.646;23.642;2023-03-25T08:52:15;8.40;;;5.15;;
56752;SDS011;42627;42.646;23.642;2023-03-25T08:54:16;10.65;;;4.32;;
56752;SDS011;42627;42.646;23.642;2023-03-25T08:56:17;7.32;;;4.38;;
56752;SDS011;42627;42.646;23.642;2023-03-25T08:58:19;9.45;;;4.63;;
56752;SDS011;42627;42.646;23.642;2023-03-25T09:00:21;6.93;;;4.13;;
56752;SDS011;42627;42.646;23.642;2023-03-25T09:02:23;8.77;;;4.43;;
56752;SDS011;42627;42.646;23.642;2023-03-25T09:04:25;8.98;;;4.53;;
56752;SDS011;42627;42.646;23.642;2023-03-25T09:06:25;7.88;;;4.22;;
56752;SDS011;42627;42.646;23.642;2023-03-25T09:08:26;11.95;;;4.55;;
56752;SDS011;42627;42.646;23.642;2023-03-25T09:10:27;6.97;;;3.83;;
56752;SDS011;42627;42.646;23.642;2023-03-25T09:12:28;6.43;;;3.92;;
56752;SDS011;42627;42.646;23.642;2023-03-25T09:14:29;7.75;;;3.65;;
56752;SDS011;42627;42.646;23.642;2023-03-25T09:16:31;8.13;;;4.18;;
56752;SDS011;42627;42.646;23.642;2023-03-25T09:18:32;9.35;;;4.13;;
56752;SDS011;42627;42.646;23.642;2023-03-25T09:20:35;9.25;;;4.53;;
56752;SDS011;42627;42.646;23.642;2023-03-25T09:22:37;10.63;;;4.88;;
56752;SDS011;42627;42.646;23.642;2023-03-25T09:24:38;8.95;;;4.03;;
56752;SDS011;42627;42.646;23.642;2023-03-25T09:26:39;6.97;;;3.53;;
56752;SDS011;42627;42.646;23.642;2023-03-25T09:28:40;7.07;;;3.90;;
56752;SDS011;42627;42.646;23.642;2023-03-25T09:30:41;8.82;;;4.25;;
56752;SDS011;42627;42.646;23.642;2023-03-25T09:32:42;7.15;;;3.90;;
56752;SDS011;42627;42.646;23.642;2023-03-25T09:34:44;6.88;;;3.83;;
56752;SDS011;42627;42.646;23.642;2023-03-25T09:36:45;8.25;;;3.65;;
56752;SDS011;42627;42.646;23.642;2023-03-25T09:38:46;8.70;;;4.00;;
56752;SDS011;42627;42.646;23.642;2023-03-25T09:40:47;7.10;;;3.90;;
56752;SDS011;42627;42.646;23.642;2023-03-25T09:48:58;7.47;;;3.70;;
56752;SDS011;42627;42.646;23.642;2023-03-25T09:51:11;6.65;;;3.13;;
56752;SDS011;42627;42.646;23.642;2023-03-25T09:53:26;7.13;;;3.63;;
56752;SDS011;42627;42.646;23.642;2023-03-25T09:55:31;8.27;;;3.95;;
56752;SDS011;42627;42.646;23.642;2023-03-25T09:57:35;9.50;;;4.03;;
56752;SDS011;42627;42.646;23.642;2023-03-25T09:59:43;7.90;;;3.63;;
56752;SDS011;42627;42.646;23.642;2023-03-25T10:06:11;7.00;;;3.67;;
56752;SDS011;42627;42.646;23.642;2023-03-25T10:08:16;7.95;;;3.88;;
56752;SDS011;42627;42.646;23.642;2023-03-25T10:18:48;6.53;;;3.00;;
56752;SDS011;42627;42.646;23.642;2023-03-25T10:20:53;8.88;;;3.08;;
56752;SDS011;42627;42.646;23.642;2023-03-25T10:23:06;7.82;;;3.45;;
56752;SDS011;42627;42.646;23.642;2023-03-25T10:25:14;6.55;;;3.15;;
56752;SDS011;42627;42.646;23.642;2023-03-25T10:29:25;6.72;;;3.03;;
56752;SDS011;42627;42.646;23.642;2023-03-25T10:31:28;5.20;;;2.72;;
56752;SDS011;42627;42.646;23.642;2023-03-25T10:33:34;4.88;;;3.03;;
56752;SDS011;42627;42.646;23.642;2023-03-25T10:35:38;5.22;;;2.90;;
56752;SDS011;42627;42.646;23.642;2023-03-25T10:37:40;5.55;;;2.88;;
56752;SDS011;42627;42.646;23.642;2023-03-25T10:39:41;5.80;;;3.30;;
56752;SDS011;42627;42.646;23.642;2023-03-25T10:41:51;4.30;;;2.53;;
56752;SDS011;42627;42.646;23.642;2023-03-25T10:43:55;10.05;;;3.15;;
56752;SDS011;42627;42.646;23.642;2023-03-25T10:46:00;28.60;;;12.00;;
56752;SDS011;42627;42.646;23.642;2023-03-25T10:48:13;13.82;;;6.45;;
56752;SDS011;42627;42.646;23.642;2023-03-25T10:50:19;5.55;;;2.75;;
56752;SDS011;42627;42.646;23.642;2023-03-25T10:52:20;5.35;;;2.40;;
56752;SDS011;42627;42.646;23.642;2023-03-25T10:54:22;6.15;;;2.45;;
56752;SDS011;42627;42.646;23.642;2023-03-25T10:56:32;5.78;;;2.22;;
56752;SDS011;42627;42.646;23.642;2023-03-25T10:58:36;4.35;;;2.38;;
56752;SDS011;42627;42.646;23.642;2023-03-25T11:00:37;5.13;;;2.58;;
56752;SDS011;42627;42.646;23.642;2023-03-25T11:02:39;5.43;;;2.20;;
56752;SDS011;42627;42.646;23.642;2023-03-25T11:04:42;4.53;;;1.95;;
56752;SDS011;42627;42.646;23.642;2023-03-25T11:06:44;4.05;;;2.08;;
56752;SDS011;42627;42.646;23.642;2023-03-25T11:08:55;5.18;;;2.50;;
56752;SDS011;42627;42.646;23.642;2023-03-25T11:10:57;3.63;;;1.90;;
56752;SDS011;42627;42.646;23.642;2023-03-25T11:13:00;3.97;;;1.95;;
56752;SDS011;42627;42.646;23.642;2023-03-25T11:15:06;3.80;;;2.10;;
56752;SDS011;42627;42.646;23.642;2023-03-25T11:17:14;3.58;;;1.70;;
56752;SDS011;42627;42.646;23.642;2023-03-25T11:19:19;5.03;;;2.55;;
56752;SDS011;42627;42.646;23.642;2023-03-25T11:21:44;5.07;;;1.95;;
56752;SDS011;42627;42.646;23.642;2023-03-25T11:23:47;6.93;;;2.20;;
56752;SDS011;42627;42.646;23.642;2023-03-25T11:25:54;4.10;;;1.85;;
56752;SDS011;42627;42.646;23.642;2023-03-25T11:27:55;4.57;;;2.10;;
56752;SDS011;42627;42.646;23.642;2023-03-25T11:30:02;2.67;;;1.80;;
56752;SDS011;42627;42.646;23.642;2023-03-25T11:32:23;5.18;;;2.28;;
56752;SDS011;42627;42.646;23.642;2023-03-25T11:34:28;4.72;;;1.90;;
56752;SDS011;42627;42.646;23.642;2023-03-25T11:36:30;5.32;;;2.10;;
56752;SDS011;42627;42.646;23.642;2023-03-25T11:38:32;3.05;;;1.67;;
56752;SDS011;42627;42.646;23.642;2023-03-25T11:40:37;3.85;;;1.40;;
56752;SDS011;42627;42.646;23.642;2023-03-25T11:42:52;6.20;;;2.08;;
56752;SDS011;42627;42.646;23.642;2023-03-25T11:44:55;3.28;;;2.00;;
56752;SDS011;42627;42.646;23.642;2023-03-25T11:47:02;3.65;;;2.05;;
56752;SDS011;42627;42.646;23.642;2023-03-25T11:49:08;8.07;;;1.73;;
56752;SDS011;42627;42.646;23.642;2023-03-25T11:51:15;4.15;;;1.88;;
56752;SDS011;42627;42.646;23.642;2023-03-25T11:53:18;4.65;;;2.10;;
56752;SDS011;42627;42.646;23.642;2023-03-25T11:55:23;4.22;;;2.00;;
56752;SDS011;42627;42.646;23.642;2023-03-25T11:57:26;6.15;;;2.60;;
56752;SDS011;42627;42.646;23.642;2023-03-25T11:59:46;3.67;;;2.33;;
56752;SDS011;42627;42.646;23.642;2023-03-25T12:01:48;4.97;;;2.70;;
56752;SDS011;42627;42.646;23.642;2023-03-25T12:03:49;6.13;;;2.40;;
56752;SDS011;42627;42.646;23.642;2023-03-25T12:06:04;5.00;;;2.30;;
56752;SDS011;42627;42.646;23.642;2023-03-25T12:10:11;6.97;;;2.33;;
56752;SDS011;42627;42.646;23.642;2023-03-25T12:34:56;3.67;;;2.08;;
56752;SDS011;42627;42.646;23.642;2023-03-25T12:41:20;3.35;;;1.80;;
56752;SDS011;42627;42.646;23.642;2023-03-25T12:43:35;2.55;;;1.70;;
56752;SDS011;42627;42.646;23.642;2023-03-25T12:50:25;5.03;;;2.50;;
56752;SDS011;42627;42.646;23.642;2023-03-25T12:55:19;5.57;;;2.40;;
56752;SDS011;42627;42.646;23.642;2023-03-25T13:01:11;4.75;;;2.20;;
56752;SDS011;42627;42.646;23.642;2023-03-25T13:05:24;4.50;;;2.38;;
56752;SDS011;42627;42.646;23.642;2023-03-25T13:07:27;4.70;;;1.90;;
56752;SDS011;42627;42.646;23.642;2023-03-25T13:09:53;4.15;;;1.95;;
56752;SDS011;42627;42.646;23.642;2023-03-25T13:12:17;4.15;;;2.13;;
56752;SDS011;42627;42.646;23.642;2023-03-25T13:14:28;3.85;;;2.03;;
56752;SDS011;42627;42.646;23.642;2023-03-25T13:16:29;5.00;;;2.03;;
56752;SDS011;42627;42.646;23.642;2023-03-25T13:18:39;3.15;;;2.08;;
56752;SDS011;42627;42.646;23.642;2023-03-25T13:20:45;5.10;;;1.73;;
56752;SDS011;42627;42.646;23.642;2023-03-25T13:22:51;4.45;;;2.13;;
56752;SDS011;42627;42.646;23.642;2023-03-25T13:24:57;4.13;;;1.83;;
56752;SDS011;42627;42.646;23.642;2023-03-25T13:26:59;3.83;;;2.22;;
56752;SDS011;42627;42.646;23.642;2023-03-25T13:29:10;4.80;;;3.00;;
56752;SDS011;42627;42.646;23.642;2023-03-25T13:31:16;5.60;;;1.98;;
56752;SDS011;42627;42.646;23.642;2023-03-25T13:33:19;3.22;;;1.88;;
56752;SDS011;42627;42.646;23.642;2023-03-25T13:35:33;13.88;;;2.88;;
56752;SDS011;42627;42.646;23.642;2023-03-25T13:37:45;3.78;;;2.00;;
56752;SDS011;42627;42.646;23.642;2023-03-25T13:42:14;4.18;;;2.40;;
56752;SDS011;42627;42.646;23.642;2023-03-25T13:46:20;4.68;;;1.83;;
56752;SDS011;42627;42.646;23.642;2023-03-25T13:49:05;4.57;;;2.13;;
56752;SDS011;42627;42.646;23.642;2023-03-25T13:50:50;5.25;;;2.33;;
56752;SDS011;42627;42.646;23.642;2023-03-25T13:52:53;4.78;;;2.22;;
56752;SDS011;42627;42.646;23.642;2023-03-25T13:54:57;5.82;;;3.03;;
56752;SDS011;42627;42.646;23.642;2023-03-25T13:57:05;6.63;;;2.53;;
56752;SDS011;42627;42.646;23.642;2023-03-25T13:59:17;7.57;;;3.40;;
56752;SDS011;42627;42.646;23.642;2023-03-25T14:06:20;4.10;;;2.25;;
56752;SDS011;42627;42.646;23.642;2023-03-25T14:12:50;8.02;;;2.55;;
56752;SDS011;42627;42.646;23.642;2023-03-25T14:14:54;7.32;;;3.08;;
56752;SDS011;42627;42.646;23.642;2023-03-25T14:16:56;3.65;;;2.10;;
56752;SDS011;42627;42.646;23.642;2023-03-25T14:19:00;3.03;;;1.90;;
56752;SDS011;42627;42.646;23.642;2023-03-25T14:21:14;4.55;;;1.95;;
56752;SDS011;42627;42.646;23.642;2023-03-25T14:23:30;3.55;;;1.92;;
56752;SDS011;42627;42.646;23.642;2023-03-25T14:25:41;4.72;;;2.00;;
56752;SDS011;42627;42.646;23.642;2023-03-25T14:27:53;4.40;;;2.10;;
56752;SDS011;42627;42.646;23.642;2023-03-25T14:29:56;4.10;;;2.10;;
56752;SDS011;42627;42.646;23.642;2023-03-25T14:34:22;5.72;;;2.55;;
56752;SDS011;42627;42.646;23.642;2023-03-25T14:36:27;5.07;;;2.47;;
56752;SDS011;42627;42.646;23.642;2023-03-25T14:40:48;4.30;;;2.05;;
56752;SDS011;42627;42.646;23.642;2023-03-25T14:42:58;3.65;;;2.30;;
56752;SDS011;42627;42.646;23.642;2023-03-25T14:49:20;4.30;;;2.25;;
56752;SDS011;42627;42.646;23.642;2023-03-25T14:53:26;6.32;;;3.63;;
56752;SDS011;42627;42.646;23.642;2023-03-25T14:55:28;5.53;;;3.13;;
56752;SDS011;42627;42.646;23.642;2023-03-25T14:57:31;6.13;;;3.20;;
56752;SDS011;42627;42.646;23.642;2023-03-25T14:59:39;4.78;;;2.75;;
56752;SDS011;42627;42.646;23.642;2023-03-25T15:01:42;4.07;;;2.58;;
56752;SDS011;42627;42.646;23.642;2023-03-25T15:03:44;3.80;;;2.38;;
56752;SDS011;42627;42.646;23.642;2023-03-25T15:05:53;6.35;;;2.95;;
56752;SDS011;42627;42.646;23.642;2023-03-25T15:09:58;5.00;;;3.03;;
56752;SDS011;42627;42.646;23.642;2023-03-25T15:12:02;6.10;;;2.85;;
56752;SDS011;42627;42.646;23.642;2023-03-25T15:14:05;7.00;;;4.07;;
56752;SDS011;42627;42.646;23.642;2023-03-25T15:20:36;9.23;;;3.42;;
56752;SDS011;42627;42.646;23.642;2023-03-25T15:22:38;7.00;;;4.65;;
56752;SDS011;42627;42.646;23.642;2023-03-25T15:24:39;8.85;;;4.70;;
56752;SDS011;42627;42.646;23.642;2023-03-25T15:26:41;8.68;;;4.90;;
56752;SDS011;42627;42.646;23.642;2023-03-25T15:28:50;10.02;;;5.82;;
56752;SDS011;42627;42.646;23.642;2023-03-25T15:55:36;14.00;;;9.23;;
56752;SDS011;42627;42.646;23.642;2023-03-25T15:59:50;12.63;;;7.10;;
56752;SDS011;42627;42.646;23.642;2023-03-25T16:02:03;9.13;;;5.63;;
56752;SDS011;42627;42.646;23.642;2023-03-25T16:04:20;13.40;;;7.20;;
56752;SDS011;42627;42.646;23.642;2023-03-25T16:06:47;15.68;;;7.70;;
56752;SDS011;42627;42.646;23.642;2023-03-25T16:09:14;15.80;;;7.68;;
56752;SDS011;42627;42.646;23.642;2023-03-25T16:11:30;20.02;;;9.15;;
56752;SDS011;42627;42.646;23.642;2023-03-25T16:13:47;16.33;;;8.73;;
56752;SDS011;42627;42.646;23.642;2023-03-25T16:16:00;13.48;;;6.82;;
56752;SDS011;42627;42.646;23.642;2023-03-25T16:18:04;18.73;;;8.73;;
56752;SDS011;42627;42.646;23.642;2023-03-25T16:20:05;20.88;;;11.88;;
56752;SDS011;42627;42.646;23.642;2023-03-25T16:22:26;22.38;;;9.55;;
56752;SDS011;42627;42.646;23.642;2023-03-25T16:24:28;20.17;;;9.10;;
56752;SDS011;42627;42.646;23.642;2023-03-25T16:28:38;18.45;;;9.25;;
56752;SDS011;42627;42.646;23.642;2023-03-25T16:30:42;16.00;;;7.95;;
56752;SDS011;42627;42.646;23.642;2023-03-25T16:32:43;13.07;;;6.68;;